Time;durP1;ratioP1;P1;durP2;ratioP2;P2;SDS_P1;SDS_P2;PMS_P1;PMS_P2;Temp;Humidity;BMP_temperature;BMP_pressure;BME280_temperature;BME280_humidity;BME280_pressure;Samples;Min_cycle;Max_cycle;Signal;HPM_P1;HPM_P2
2022/06/03 00:04:20;;;;;;;5.90;2.77;;;;;;;9.10;76.44;101198.23;3481119;81;98396;-86
2022/06/03 00:09:49;;;;;;;5.85;3.33;;;;;;;9.04;75.63;101198.81;3578056;80;98753;-86
2022/06/03 00:15:21;;;;;;;6.33;2.83;;;;;;;8.97;76.08;101202.17;3582789;80;98697;-86
2022/06/03 00:20:54;;;;;;;5.33;2.83;;;;;;;8.91;76.17;101211.80;3534887;83;98547;-86
2022/06/03 00:26:15;;;;;;;5.62;3.02;;;;;;;8.85;76.06;101207.69;3585109;80;98609;-87
2022/06/03 00:31:41;;;;;;;4.55;2.70;;;;;;;8.81;76.08;101204.03;3566029;81;98467;-86
2022/06/03 00:37:25;;;;;;;8.88;3.12;;;;;;;8.76;76.14;101200.16;3663918;80;98449;-87
2022/06/03 00:42:51;;;;;;;7.97;2.87;;;;;;;8.70;77.18;101197.42;3676702;80;98524;-87
2022/06/03 00:48:03;;;;;;;5.22;2.70;;;;;;;8.61;77.21;101193.99;3554875;81;99112;-87
2022/06/03 00:53:13;;;;;;;6.92;3.20;;;;;;;8.56;76.67;101198.34;3563725;82;98482;-87
2022/06/03 00:58:27;;;;;;;9.87;3.13;;;;;;;8.53;77.64;101196.30;3525980;81;98222;-87
2022/06/03 01:03:51;;;;;;;5.97;2.72;;;;;;;8.46;78.71;101196.66;3573391;82;98970;-87
2022/06/03 01:09:29;;;;;;;5.55;2.55;;;;;;;8.36;77.81;101203.97;3581226;81;98779;-87
2022/06/03 01:15:15;;;;;;;5.65;2.70;;;;;;;8.34;77.73;101200.77;3595123;81;98703;-86
2022/06/03 01:20:49;;;;;;;6.03;2.70;;;;;;;8.27;78.87;101200.52;3589226;82;98727;-87
2022/06/03 01:26:08;;;;;;;3.85;2.25;;;;;;;8.20;78.82;101201.67;3517278;82;98927;-86
2022/06/03 01:31:26;;;;;;;4.97;2.50;;;;;;;8.15;78.13;101199.94;3547110;82;98582;-87
2022/06/03 01:37:05;;;;;;;3.72;2.15;;;;;;;8.14;78.10;101198.90;3663669;80;98555;-87
2022/06/03 01:42:33;;;;;;;5.12;2.20;;;;;;;8.08;79.22;101196.94;3673438;79;98783;-87
2022/06/03 01:48:04;;;;;;;4.90;2.42;;;;;;;8.02;78.57;101190.67;3666781;80;98550;-86
2022/06/03 01:53:38;;;;;;;4.08;2.30;;;;;;;7.98;79.24;101196.59;3666724;80;98613;-86
2022/06/03 01:59:25;;;;;;;6.28;2.40;;;;;;;7.92;79.99;101193.85;3667773;80;32987;-87
2022/06/03 02:04:39;;;;;;;;;;;;;;;7.84;79.78;101197.48;3679290;79;98586;-87
2022/06/03 02:10:23;;;;;;;5.42;2.08;;;;;;;7.78;81.40;101200.21;3668590;80;84224;-86
2022/06/03 02:15:32;;;;;;;3.23;1.87;;;;;;;7.73;79.98;101194.39;3670916;79;98421;-87
2022/06/03 02:20:57;;;;;;;3.25;1.98;;;;;;;7.69;80.51;101209.11;3660443;80;98427;-87
2022/06/03 02:26:32;;;;;;;3.95;1.92;;;;;;;7.65;80.86;101199.96;3668804;80;98435;-87
2022/06/03 02:31:39;;;;;;;3.20;1.77;;;;;;;7.62;80.75;101208.84;3585061;82;98496;-87
2022/06/03 02:36:54;;;;;;;3.83;1.82;;;;;;;7.57;80.57;101209.87;3565057;82;98551;-87
2022/06/03 02:42:28;;;;;;;3.67;1.82;;;;;;;7.55;80.32;101201.75;3591804;82;98580;-87
2022/06/03 02:47:57;;;;;;;4.08;1.87;;;;;;;7.54;80.18;101205.64;3590908;82;31078;-88
2022/06/03 02:53:04;;;;;;;3.98;1.92;;;;;;;7.50;81.52;101208.26;3584923;82;98472;-88
2022/06/03 02:58:30;;;;;;;7.53;1.98;;;;;;;7.47;82.60;101212.24;3589261;82;98373;-87
2022/06/03 03:03:59;;;;;;;5.25;2.20;;;;;;;7.41;83.17;101213.01;3586547;82;98531;-88
2022/06/03 03:09:30;;;;;;;3.50;1.70;;;;;;;7.39;82.35;101217.22;3595611;82;98560;-88
2022/06/03 03:15:03;;;;;;;4.22;2.05;;;;;;;7.37;81.75;101214.81;3582831;82;98331;-88
2022/06/03 03:20:55;;;;;;;3.90;2.08;;;;;;;7.39;82.56;101211.74;3588766;82;98813;-88
2022/06/03 03:26:40;;;;;;;3.55;1.87;;;;;;;7.38;83.97;101211.52;3594468;81;98555;-88
2022/06/03 03:32:15;;;;;;;4.58;2.42;;;;;;;7.38;83.48;101219.17;3580494;82;98545;-88
2022/06/03 03:37:55;;;;;;;6.00;2.05;;;;;;;7.41;84.63;101222.59;3531199;82;98482;-88
2022/06/03 03:43:46;;;;;;;3.10;1.90;;;;;;;7.42;83.49;101227.52;3657510;79;98605;-88
2022/06/03 03:49:17;;;;;;;3.67;2.12;;;;;;;7.49;84.85;101235.97;3665594;80;98151;-88
2022/06/03 03:54:29;;;;;;;4.47;2.33;;;;;;;7.53;85.47;101230.84;3665635;80;98620;-88
2022/06/03 04:00:09;;;;;;;5.78;2.80;;;;;;;7.57;84.02;101230.97;3616554;79;32899;-88
2022/06/03 04:05:35;;;;;;;4.85;2.75;;;;;;;7.64;85.13;101242.98;3640441;79;98274;-88
2022/06/03 04:11:03;;;;;;;4.92;2.52;;;;;;;7.74;86.21;101239.04;3654495;79;97429;-88
2022/06/03 04:16:40;;;;;;;10.73;5.20;;;;;;;7.86;87.04;101233.59;3560499;81;98280;-88
2022/06/03 04:21:55;;;;;;;11.60;6.53;;;;;;;7.97;87.07;101242.97;3638682;79;98800;-88
2022/06/03 04:27:14;;;;;;;18.30;8.33;;;;;;;8.17;88.22;101239.33;3654792;79;98736;-87
2022/06/03 04:32:57;;;;;;;14.63;8.33;;;;;;;8.37;88.70;101240.66;3638833;78;99277;-88
2022/06/03 04:38:33;;;;;;;15.18;9.48;;;;;;;8.72;89.08;101238.25;3664251;79;98653;-88
2022/06/03 04:44:12;;;;;;;14.98;9.00;;;;;;;9.15;88.95;101232.88;3655717;80;99143;-88
2022/06/03 04:49:58;;;;;;;14.43;8.65;;;;;;;9.36;88.15;101239.80;3611922;80;99172;-87
2022/06/03 04:55:30;;;;;;;12.82;7.90;;;;;;;9.85;88.31;101244.48;3598416;80;99208;-88
2022/06/03 05:01:17;;;;;;;13.40;6.53;;;;;;;10.24;86.74;101243.02;3614209;80;99234;-87
2022/06/03 05:06:47;;;;;;;9.53;5.90;;;;;;;11.01;85.18;101232.46;3622450;80;98930;-87
2022/06/03 05:12:28;;;;;;;11.38;5.37;;;;;;;11.01;85.18;101232.46;3660316;79;98572;-87
2022/06/03 05:17:52;;;;;;;12.78;5.22;;;;;;;12.25;84.26;101227.66;3670317;79;98721;-87
2022/06/03 05:23:30;;;;;;;15.15;5.50;;;;;;;12.25;84.26;101227.66;3621699;78;99231;-87
2022/06/03 05:28:57;;;;;;;12.35;4.15;;;;;;;13.19;82.95;101253.20;3661543;79;99339;-86
2022/06/03 05:34:49;;;;;;;8.95;4.12;;;;;;;14.21;80.49;101261.33;3645767;78;99432;-85
2022/06/03 05:40:15;;;;;;;9.65;3.87;;;;;;;15.32;79.43;101256.42;3579876;80;99262;-81
2022/06/03 05:45:50;;;;;;;7.97;3.45;;;;;;;16.48;77.16;101256.19;3644832;79;98863;-80
2022/06/03 05:51:24;;;;;;;8.88;3.52;;;;;;;17.66;73.88;101255.77;3653037;78;100333;-79
2022/06/03 05:56:52;;;;;;;9.43;3.52;;;;;;;18.75;70.35;101246.86;3646236;78;98950;-80
2022/06/03 06:02:14;;;;;;;7.87;3.70;;;;;;;19.73;67.92;101256.95;3660304;79;99415;-80
2022/06/03 06:07:29;;;;;;;7.80;3.33;;;;;;;20.63;64.90;101260.22;3664720;79;98878;-81
2022/06/03 06:12:39;;;;;;;7.15;3.02;;;;;;;21.55;62.65;101252.52;3659479;79;98491;-81
2022/06/03 06:17:51;;;;;;;7.78;3.42;;;;;;;22.38;61.11;101263.08;3649739;79;98579;-81
2022/06/03 06:22:57;;;;;;;6.87;3.35;;;;;;;23.13;57.47;101270.61;3657576;79;98663;-80
2022/06/03 06:28:05;;;;;;;11.80;3.35;;;;;;;23.63;55.03;101265.81;3659052;79;98798;-81
2022/06/03 06:33:28;;;;;;;7.97;3.25;;;;;;;23.81;52.56;101275.30;3635396;79;99144;-82
2022/06/03 06:38:56;;;;;;;9.18;3.17;;;;;;;24.46;51.07;101268.06;3669902;79;98832;-81
2022/06/03 06:44:11;;;;;;;6.92;2.83;;;;;;;24.93;49.08;101269.53;3651094;79;98872;-81
2022/06/03 06:49:36;;;;;;;5.87;2.70;;;;;;;25.13;42.91;101266.58;3654929;80;98761;-81
2022/06/03 06:55:01;;;;;;;5.37;2.27;;;;;;;25.16;45.75;101264.28;3655838;79;98501;-83
2022/06/03 07:00:22;;;;;;;3.70;1.90;;;;;;;25.68;45.10;101259.38;3659253;80;25779;-81
2022/06/03 07:05:57;;;;;;;9.20;2.30;;;;;;;25.92;41.84;101259.07;3651271;79;98747;-82
2022/06/03 07:11:09;;;;;;;4.40;1.90;;;;;;;25.63;40.78;101248.08;3656273;78;98784;-81
2022/06/03 07:16:15;;;;;;;2.62;1.62;;;;;;;25.69;41.03;101243.41;3661298;79;98838;-81
2022/06/03 07:21:30;;;;;;;8.50;1.87;;;;;;;26.16;40.11;101243.22;3657913;78;99340;-81
2022/06/03 07:26:39;;;;;;;;;;;;;;;26.01;38.89;101242.20;3661609;79;98784;-81
2022/06/03 07:32:00;;;;;;;3.67;1.40;;;;;;;26.15;38.06;101238.83;3653861;79;85514;-81
2022/06/03 07:37:25;;;;;;;5.83;2.10;;;;;;;26.28;37.49;101235.27;3657278;79;26853;-81
2022/06/03 07:42:38;;;;;;;5.23;1.60;;;;;;;26.11;38.72;101237.53;3660352;79;98927;-81
2022/06/03 07:47:39;;;;;;;4.40;1.80;;;;;;;26.40;38.17;101225.27;3669051;79;98963;-80
2022/06/03 07:52:48;;;;;;;5.37;2.27;;;;;;;26.40;38.06;101226.69;3662733;79;99169;-80
2022/06/03 07:57:58;;;;;;;4.10;1.98;;;;;;;26.59;37.95;101228.31;3672646;79;98942;-81
2022/06/03 08:03:07;;;;;;;4.75;1.47;;;;;;;27.04;37.36;101217.09;3673019;79;98970;-81
2022/06/03 08:13:44;;;;;;;7.40;2.20;;;;;;;28.02;34.75;101213.98;3656824;79;98889;-80
2022/06/03 08:18:46;;;;;;;5.20;2.08;;;;;;;27.90;34.02;101211.34;3667675;79;25860;-79
2022/06/03 08:23:47;;;;;;;2.92;1.80;;;;;;;27.78;34.33;101220.17;3669241;79;98688;-80
2022/06/03 08:28:52;;;;;;;3.85;1.70;;;;;;;28.42;34.50;101215.05;3670745;79;99186;-80
2022/06/03 08:34:00;;;;;;;3.50;1.80;;;;;;;28.76;34.30;101215.96;3634706;79;98934;-80
2022/06/03 08:39:10;;;;;;;5.08;2.37;;;;;;;29.16;33.72;101217.06;3665464;79;98825;-81
2022/06/03 08:44:46;;;;;;;4.70;1.75;;;;;;;29.40;33.65;101222.05;3663783;78;98778;-80
2022/06/03 08:50:13;;;;;;;3.60;1.80;;;;;;;29.81;34.04;101201.79;3662827;79;99319;-80
2022/06/03 08:55:42;;;;;;;4.47;1.67;;;;;;;30.67;33.03;101206.50;3659651;79;98528;-81
2022/06/03 09:00:57;;;;;;;7.15;2.50;;;;;;;31.13;31.78;101204.51;3655959;79;98572;-81
2022/06/03 09:06:07;;;;;;;5.08;1.50;;;;;;;31.66;31.38;101204.80;3664184;79;98573;-79
2022/06/03 09:11:20;;;;;;;5.05;1.50;;;;;;;32.16;30.07;101205.25;3646084;79;98693;-80
2022/06/03 09:16:25;;;;;;;4.62;1.50;;;;;;;32.39;29.97;101209.83;3659822;80;98826;-81
2022/06/03 09:21:33;;;;;;;7.33;2.35;;;;;;;32.84;29.73;101212.43;3658125;79;98809;-79
2022/06/03 09:26:39;;;;;;;1.87;1.62;;;;;;;33.00;27.22;101213.78;3656859;79;98802;-80
2022/06/03 09:31:45;;;;;;;3.65;1.35;;;;;;;32.23;28.14;101206.98;3658569;80;98486;-79
2022/06/03 09:36:46;;;;;;;2.58;1.40;;;;;;;32.67;28.42;101210.13;3663132;79;98478;-80
2022/06/03 09:41:53;;;;;;;2.42;1.50;;;;;;;32.64;27.92;101192.59;3655201;80;98901;-81
2022/06/03 09:47:05;;;;;;;7.37;2.08;;;;;;;33.01;28.39;101195.40;3666643;80;98728;-80
2022/06/03 09:52:12;;;;;;;6.28;1.77;;;;;;;33.60;27.30;101183.98;3651410;79;99229;-80
2022/06/03 09:57:39;;;;;;;3.90;1.67;;;;;;;33.61;26.88;101184.11;3647132;80;99097;-79
2022/06/03 10:02:42;;;;;;;4.90;1.77;;;;;;;33.84;26.52;101169.98;3650439;79;98840;-80
2022/06/03 10:07:45;;;;;;;4.60;1.53;;;;;;;34.24;26.93;101180.07;3670353;79;31657;-80
2022/06/03 10:12:50;;;;;;;10.23;1.75;;;;;;;34.20;27.05;101173.20;3662480;79;98703;-80
2022/06/03 10:17:53;;;;;;;2.72;1.80;;;;;;;34.38;26.62;101156.17;3670595;79;99163;-78
2022/06/03 10:22:55;;;;;;;6.43;2.00;;;;;;;34.41;25.87;101160.19;3659722;79;98860;-81
2022/06/03 10:28:10;;;;;;;2.58;1.40;;;;;;;33.87;26.10;101160.39;3674544;79;99216;-80
2022/06/03 10:33:19;;;;;;;4.72;1.62;;;;;;;33.97;26.65;101159.47;3658520;79;98867;-79
2022/06/03 10:38:22;;;;;;;3.27;1.55;;;;;;;34.89;26.73;101147.66;3645767;79;99319;-80
2022/06/03 10:43:30;;;;;;;3.83;1.82;;;;;;;35.78;26.17;101142.11;3662827;79;98608;-80
2022/06/03 10:48:34;;;;;;;4.12;1.70;;;;;;;35.16;24.63;101135.92;3655922;79;98957;-79
2022/06/03 11:04:38;;;;;;;5.15;2.05;;;;;;;35.29;23.36;101121.16;3649731;79;98995;-80
2022/06/03 11:09:44;;;;;;;3.58;1.60;;;;;;;35.03;24.75;101105.03;3638917;80;99086;-80
2022/06/03 11:14:46;;;;;;;4.40;2.10;;;;;;;35.56;25.84;101092.16;3652282;79;99225;-80
2022/06/03 11:19:54;;;;;;;4.53;2.90;;;;;;;34.95;23.84;101090.40;3655900;79;25808;-79
2022/06/03 11:25:22;;;;;;;6.45;2.60;;;;;;;34.32;24.26;101087.58;3646578;79;98852;-79
2022/06/03 11:30:52;;;;;;;4.35;2.05;;;;;;;34.41;24.78;101088.72;3669237;79;98629;-80
2022/06/03 11:35:58;;;;;;;4.22;1.82;;;;;;;34.83;27.63;101087.48;3657146;79;98598;-79
2022/06/03 11:41:05;;;;;;;3.40;2.00;;;;;;;34.91;25.30;101082.10;3642683;79;99078;-79
2022/06/03 11:46:14;;;;;;;3.42;1.95;;;;;;;34.82;25.07;101073.06;3674393;79;99253;-80
2022/06/03 11:51:15;;;;;;;5.22;2.45;;;;;;;35.04;25.39;101063.66;3668549;79;98906;-80
2022/06/03 11:56:22;;;;;;;3.17;2.35;;;;;;;34.87;24.82;101057.28;3655555;79;98797;-79
2022/06/03 12:01:53;;;;;;;5.28;2.12;;;;;;;34.45;24.28;101056.99;3649074;80;98470;-79
2022/06/03 12:07:09;;;;;;;8.60;1.98;;;;;;;34.50;24.34;101049.04;3571985;80;97715;-79
2022/06/03 12:17:52;;;;;;;4.45;1.92;;;;;;;33.85;23.67;101030.83;3572692;80;99077;-79
2022/06/03 12:22:54;;;;;;;4.15;1.60;;;;;;;32.90;23.48;101053.52;3574078;81;98801;-79
2022/06/03 12:27:57;;;;;;;3.83;1.70;;;;;;;33.03;25.08;101038.13;3518087;82;98863;-79
2022/06/03 12:33:03;;;;;;;3.00;1.70;;;;;;;33.29;24.49;101031.52;3549793;81;98969;-79
2022/06/03 12:38:25;;;;;;;4.80;1.77;;;;;;;33.47;26.13;101023.87;3557241;81;98953;-79
2022/06/03 12:43:50;;;;;;;4.85;2.12;;;;;;;33.04;24.60;101013.22;3554989;81;98541;-79
2022/06/03 12:48:51;;;;;;;4.37;1.60;;;;;;;33.11;24.98;101015.55;3570592;81;98500;-79
2022/06/03 12:53:57;;;;;;;6.80;2.02;;;;;;;32.17;23.72;101005.97;3560137;81;98932;-79
2022/06/03 12:59:07;;;;;;;3.87;2.17;;;;;;;32.06;24.48;100991.05;3574663;80;98759;-79
2022/06/03 13:04:40;;;;;;;6.80;1.87;;;;;;;32.17;25.51;100991.09;3641918;79;98915;-79
2022/06/03 13:10:04;;;;;;;5.65;1.75;;;;;;;32.39;24.97;100989.77;3662041;79;99248;-78
2022/06/03 13:15:25;;;;;;;3.95;1.55;;;;;;;31.61;25.36;100967.88;3653471;79;98789;-79
2022/06/03 13:20:59;;;;;;;4.15;1.42;;;;;;;31.88;26.97;100954.45;3670287;79;98849;-79
2022/06/03 13:26:26;;;;;;;3.87;1.70;;;;;;;32.17;24.94;100948.37;3659682;79;98858;-77
2022/06/03 13:31:42;;;;;;;2.95;1.82;;;;;;;31.94;25.63;100945.29;3639602;80;98429;-77
2022/06/03 13:36:51;;;;;;;2.67;2.05;;;;;;;31.66;24.60;100936.48;3660717;79;98789;-78
2022/06/03 13:47:34;;;;;;;2.92;1.80;;;;;;;31.07;26.49;100919.92;3667930;79;98690;-78
2022/06/03 13:52:55;;;;;;;5.50;1.95;;;;;;;31.36;27.70;100911.87;3652571;79;99201;-79
2022/06/03 13:58:13;;;;;;;3.17;1.70;;;;;;;31.82;27.30;100912.38;3639155;79;99262;-79
2022/06/03 14:03:26;;;;;;;4.83;1.47;;;;;;;31.75;25.20;100901.48;3593764;80;98669;-79
2022/06/03 14:08:49;;;;;;;2.67;1.50;;;;;;;31.19;24.39;100894.53;3631343;80;98724;-78
2022/06/03 14:14:10;;;;;;;2.75;1.50;;;;;;;30.91;24.92;100892.94;3638507;79;98445;-80
2022/06/03 14:19:44;;;;;;;3.65;2.00;;;;;;;30.53;24.86;100881.22;3658299;79;98453;-78
2022/06/03 14:25:15;;;;;;;2.10;1.20;;;;;;;30.34;24.70;100881.44;3635444;79;98626;-77
2022/06/03 14:30:47;;;;;;;2.83;1.80;;;;;;;30.05;24.49;100873.88;3643580;79;98986;-77
2022/06/03 14:35:54;;;;;;;3.50;1.52;;;;;;;29.44;24.22;100870.14;3646058;79;98552;-78
2022/06/03 14:40:55;;;;;;;1.90;1.33;;;;;;;29.39;25.62;100875.89;3644029;79;98901;-77
2022/06/03 14:46:02;;;;;;;5.42;1.40;;;;;;;29.41;26.32;100875.38;3629942;79;99247;-77
2022/06/03 14:51:09;;;;;;;3.62;1.77;;;;;;;29.32;25.75;100875.53;3505989;82;99184;-78
2022/06/03 14:56:39;;;;;;;2.33;1.55;;;;;;;29.07;26.95;100878.41;3465640;83;26080;-78
2022/06/03 15:01:51;;;;;;;3.87;1.40;;;;;;;28.85;27.01;100880.08;3465061;82;98462;-77
2022/06/03 15:06:58;;;;;;;3.35;1.50;;;;;;;28.48;26.35;100872.66;3522128;83;97792;-79
2022/06/03 15:12:03;;;;;;;3.00;1.42;;;;;;;28.46;28.06;100869.54;3509722;82;98900;-77
2022/06/03 15:17:05;;;;;;;3.42;1.37;;;;;;;28.40;27.07;100870.05;3506061;83;99246;-76
2022/06/03 15:22:17;;;;;;;2.95;1.60;;;;;;;28.42;26.99;100864.70;3507173;82;99327;-77
2022/06/03 15:27:28;;;;;;;2.25;1.15;;;;;;;28.22;26.48;100853.89;3509451;82;99415;-78
2022/06/03 15:32:30;;;;;;;2.50;1.35;;;;;;;27.55;27.29;100817.06;3506270;82;98626;-78
2022/06/03 15:37:31;;;;;;;3.60;1.22;;;;;;;27.55;27.29;100817.06;3506215;82;98813;-77
2022/06/03 15:42:32;;;;;;;2.87;1.30;;;;;;;27.54;27.86;100842.37;3518912;82;99113;-78
2022/06/03 15:47:36;;;;;;;1.85;1.40;;;;;;;27.52;28.42;100835.77;3515456;82;98978;-78
2022/06/03 15:52:46;;;;;;;1.98;1.40;;;;;;;27.35;28.50;100845.95;3499163;82;98873;-77
2022/06/03 15:57:56;;;;;;;4.92;1.37;;;;;;;27.01;27.49;100851.31;3520100;82;98864;-76
2022/06/03 16:03:24;;;;;;;18.65;2.55;;;;;;;26.73;28.19;100854.13;3512601;82;99187;-78
2022/06/03 16:08:48;;;;;;;5.17;1.30;;;;;;;26.52;28.00;100845.23;3515322;82;25986;-77
2022/06/03 16:14:32;;;;;;;3.35;1.20;;;;;;;26.21;27.97;100847.54;3491401;82;98796;-76
2022/06/03 16:19:41;;;;;;;3.05;1.45;;;;;;;25.71;27.60;100852.43;3519638;82;98648;-76
2022/06/03 16:25:04;;;;;;;2.52;1.27;;;;;;;25.38;27.77;100854.25;3520137;82;98752;-76
2022/06/03 16:30:10;;;;;;;4.03;1.42;;;;;;;25.10;28.96;100849.18;3529867;82;99216;-76
2022/06/03 16:35:43;;;;;;;3.90;1.40;;;;;;;24.94;28.89;100841.00;3516020;82;99312;-77
2022/06/03 16:40:50;;;;;;;2.17;1.55;;;;;;;24.83;29.62;100841.27;3520556;82;98783;-78
2022/06/03 16:46:13;;;;;;;3.40;1.70;;;;;;;24.59;29.39;100841.65;3527155;83;98800;-76
2022/06/03 16:51:19;;;;;;;2.90;1.40;;;;;;;24.41;29.56;100840.14;3511447;82;99256;-77
2022/06/03 16:56:28;;;;;;;;;;;;;;;24.23;30.07;100823.94;3524257;83;26506;-77
2022/06/03 17:01:40;;;;;;;3.17;1.57;;;;;;;24.10;30.76;100831.68;3515233;82;85141;-75
2022/06/03 17:06:55;;;;;;;2.02;1.30;;;;;;;24.01;30.42;100829.41;3505694;82;98778;-76
2022/06/03 17:11:59;;;;;;;3.47;1.50;;;;;;;23.89;30.53;100824.03;3493683;82;99525;-76
2022/06/03 17:17:08;;;;;;;3.08;1.42;;;;;;;23.72;31.67;100818.42;3518183;82;99427;-77
2022/06/03 17:22:49;;;;;;;2.65;1.62;;;;;;;23.60;31.30;100820.64;3518693;82;99220;-77
2022/06/03 17:28:17;;;;;;;3.83;1.60;;;;;;;23.53;31.21;100823.71;3516631;82;98815;-77
2022/06/03 17:33:45;;;;;;;3.08;1.35;;;;;;;23.43;31.86;100808.02;3513155;82;98871;-77
2022/06/03 17:39:03;;;;;;;1.82;1.22;;;;;;;23.33;31.62;100797.94;3495045;83;33854;-77
2022/06/03 17:44:36;;;;;;;3.25;1.32;;;;;;;23.22;32.71;100795.34;3511808;82;98563;-79
2022/06/03 17:49:57;;;;;;;1.87;1.42;;;;;;;22.96;33.41;100792.41;3517583;82;98761;-79
2022/06/03 17:55:20;;;;;;;3.62;1.62;;;;;;;22.81;33.20;100796.30;3569901;82;98629;-80
2022/06/03 18:00:39;;;;;;;13.30;2.25;;;;;;;22.77;32.87;100794.22;3636583;79;98907;-79
2022/06/03 18:05:50;;;;;;;3.25;1.52;;;;;;;22.71;33.15;100786.81;3616028;80;99034;-79
2022/06/03 18:10:51;;;;;;;2.62;1.50;;;;;;;22.61;34.77;100778.92;3620599;80;98802;-79
2022/06/03 18:16:04;;;;;;;2.42;1.45;;;;;;;22.37;35.67;100785.29;3611282;79;99231;-79
2022/06/03 18:21:26;;;;;;;2.40;1.22;;;;;;;22.11;35.88;100781.69;3634121;80;98836;-79
2022/06/03 18:26:47;;;;;;;3.47;1.50;;;;;;;21.95;36.83;100774.77;3632710;80;98625;-79
2022/06/03 18:32:10;;;;;;;3.62;1.60;;;;;;;21.72;37.77;100765.85;3612454;79;99000;-79
2022/06/03 18:37:47;;;;;;;2.52;1.62;;;;;;;21.56;38.51;100765.28;3624663;80;98661;-79
2022/06/03 18:43:24;;;;;;;5.70;1.65;;;;;;;21.38;38.54;100755.20;3627453;79;99064;-79
2022/06/03 18:48:53;;;;;;;3.30;1.70;;;;;;;21.17;39.36;100756.38;3612113;80;99258;-79
2022/06/03 18:54:02;;;;;;;6.78;1.70;;;;;;;21.00;39.45;100757.63;3628613;79;99095;-79
2022/06/03 18:59:40;;;;;;;2.92;1.65;;;;;;;20.81;40.49;100762.08;3632162;79;98840;-80
2022/06/03 19:05:18;;;;;;;5.22;1.82;;;;;;;20.66;41.69;100767.84;3611590;79;98793;-81
2022/06/03 19:10:48;;;;;;;4.67;1.98;;;;;;;20.51;42.00;100770.84;3636900;79;98781;-80
2022/06/03 19:16:03;;;;;;;4.53;1.90;;;;;;;20.23;42.82;100782.68;3526302;82;98939;-80
2022/06/03 19:21:37;;;;;;;6.75;2.50;;;;;;;19.98;43.32;100783.80;3618263;80;98958;-79
2022/06/03 19:26:48;;;;;;;5.55;2.15;;;;;;;19.81;43.60;100793.34;3643063;79;98810;-79
2022/06/03 19:32:00;;;;;;;5.22;2.47;;;;;;;19.62;44.39;100798.30;3614436;79;99165;-80
2022/06/03 19:37:18;;;;;;;3.25;2.00;;;;;;;19.50;45.01;100805.16;3636055;79;99276;-81
2022/06/03 19:42:34;;;;;;;7.03;2.55;;;;;;;19.32;45.33;100807.47;3626006;79;99276;-82
2022/06/03 19:47:43;;;;;;;8.17;2.67;;;;;;;19.14;45.87;100804.19;3603692;79;98855;-81
2022/06/03 19:52:44;;;;;;;5.05;2.47;;;;;;;19.00;46.55;100811.41;3617175;79;99309;-81
2022/06/03 19:57:53;;;;;;;6.43;2.43;;;;;;;18.86;46.53;100797.09;3584122;81;99684;-81
2022/06/03 20:03:36;;;;;;;5.03;2.27;;;;;;;18.77;46.18;100804.42;3598569;81;98896;-82
2022/06/03 20:09:01;;;;;;;6.03;2.52;;;;;;;18.62;46.28;100805.85;3605865;80;98997;-82
2022/06/03 20:14:07;;;;;;;5.30;2.87;;;;;;;18.43;46.70;100802.38;3605172;80;99140;-82
2022/06/03 20:19:16;;;;;;;9.50;2.85;;;;;;;18.31;47.06;100791.16;3604637;81;99188;-81
2022/06/03 20:24:51;;;;;;;5.03;2.80;;;;;;;18.22;47.06;100801.26;3538994;81;99274;-81
2022/06/03 20:30:01;;;;;;;12.35;2.80;;;;;;;18.09;47.75;100805.20;3611477;81;99264;-83
2022/06/03 20:35:39;;;;;;;4.65;2.27;;;;;;;17.96;47.34;100802.00;3542940;81;99364;-83
2022/06/03 20:40:46;;;;;;;10.13;3.70;;;;;;;17.88;47.39;100799.91;3594478;81;99385;-82
2022/06/03 20:45:52;;;;;;;8.48;3.55;;;;;;;17.81;47.39;100801.99;3585593;81;99401;-82
2022/06/03 20:51:19;;;;;;;10.32;3.85;;;;;;;17.73;47.76;100808.28;3592197;80;98783;-82
2022/06/03 20:56:37;;;;;;;8.80;4.00;;;;;;;17.64;47.93;100801.61;3633992;79;99270;-83
2022/06/03 21:01:41;;;;;;;8.50;4.60;;;;;;;17.55;48.28;100799.32;3634211;79;99036;-83
2022/06/03 21:17:20;;;;;;;5.95;3.22;;;;;;;17.38;48.08;100807.85;3624822;79;99307;-83
2022/06/03 21:22:58;;;;;;;7.07;3.90;;;;;;;17.31;48.20;100807.91;3611700;79;99393;-83
2022/06/03 21:27:59;;;;;;;6.72;3.50;;;;;;;17.26;48.45;100797.22;3563585;79;98744;-83
2022/06/03 21:33:14;;;;;;;6.83;3.50;;;;;;;17.19;48.79;100802.87;3623855;80;99068;-83
2022/06/03 21:38:25;;;;;;;8.10;3.87;;;;;;;17.15;49.18;100792.37;3613540;80;98662;-82
2022/06/03 21:43:55;;;;;;;7.30;3.70;;;;;;;17.14;49.29;100786.63;3622506;79;98848;-83
2022/06/03 21:49:39;;;;;;;7.20;4.05;;;;;;;17.16;49.11;100791.19;3624922;79;98672;-82
2022/06/03 21:55:07;;;;;;;8.50;3.65;;;;;;;17.12;49.45;100790.42;3625432;79;99040;-82
2022/06/03 22:00:35;;;;;;;8.50;3.67;;;;;;;17.10;49.29;100788.05;3625191;79;99335;-82
2022/06/03 22:05:37;;;;;;;9.20;4.05;;;;;;;17.10;49.34;100792.22;3617189;79;99363;-82
2022/06/03 22:10:43;;;;;;;6.63;3.47;;;;;;;17.03;49.30;100792.89;3622414;79;99277;-81
2022/06/03 22:15:46;;;;;;;5.42;3.20;;;;;;;16.99;49.48;100792.13;3622589;80;99174;-79
2022/06/03 22:20:48;;;;;;;4.90;2.90;;;;;;;17.00;49.61;100800.67;3689830;78;33250;-82
2022/06/03 22:26:37;;;;;;;7.20;3.15;;;;;;;16.97;50.05;100797.31;3627208;79;99095;-82
2022/06/03 22:32:03;;;;;;;5.17;2.70;;;;;;;16.99;49.63;100808.22;3607851;79;98960;-82
2022/06/03 22:43:18;;;;;;;8.18;3.70;;;;;;;16.89;50.00;100811.10;3602724;79;99321;-82
2022/06/03 22:48:19;;;;;;;5.85;3.42;;;;;;;16.80;50.10;100807.98;3607267;80;98839;-83
2022/06/03 22:53:20;;;;;;;7.03;3.73;;;;;;;16.75;50.42;100802.87;3620820;80;98852;-83
2022/06/03 22:58:22;;;;;;;6.87;3.47;;;;;;;16.77;50.63;100798.48;3584542;81;98777;-82
2022/06/03 23:03:23;;;;;;;7.47;3.70;;;;;;;16.74;50.94;100796.50;3576223;81;98528;-82
2022/06/03 23:08:24;;;;;;;7.50;4.17;;;;;;;16.70;51.08;100790.20;3577922;81;99173;-82
2022/06/03 23:13:25;;;;;;;8.10;4.27;;;;;;;16.67;51.57;100797.19;3574465;81;99021;-82
2022/06/03 23:18:26;;;;;;;6.53;4.00;;;;;;;16.61;51.90;100802.38;3583656;81;99094;-81
2022/06/03 23:23:35;;;;;;;7.03;3.93;;;;;;;16.55;52.00;100796.27;3577210;81;98957;-83
2022/06/03 23:28:36;;;;;;;7.67;4.20;;;;;;;16.47;52.64;100788.58;3585456;81;99266;-82
2022/06/03 23:33:38;;;;;;;8.53;4.53;;;;;;;16.38;52.81;100775.73;3615976;80;98866;-82
2022/06/03 23:38:40;;;;;;;8.45;4.28;;;;;;;16.34;53.25;100779.70;3585388;81;98551;-82
2022/06/03 23:49:00;;;;;;;7.83;4.95;;;;;;;16.22;53.91;100764.91;3576688;81;98927;-81
2022/06/03 23:54:02;;;;;;;9.90;5.20;;;;;;;16.14;54.55;100759.23;3551455;81;98868;-82
2022/06/03 23:59:04;;;;;;;11.68;5.80;;;;;;;16.09;54.86;100756.88;3532048;82;99297;-82
